Pagina principale
METAR-TAF:

METAR-TAF

Aeroporti :

Kunming, Cina

latitudine: 25-01N, longitudine: 102-41E, altezza: 1892 m

Osservazione

Il bollettino è stato emesso 50 minuti fa, alle 23:00 UTC
Vento 6 kt da sud/sud-ovest
Temperature 8°C
Umidità 87%
Pressione 1023 hPa
Visibilità 10 km o più
nessuna nube inferiore a 1500 m e nessun cumulonembo

METAR: ZPPP 202300Z 21003MPS CAVOK 08/06 Q1023 NOSIG

Ora: 07:50 (23:50 UTC)

Previsione

Il bollettino è stato emesso 4 ore e 38 minuti fa, alle 19:12 UTC
Previsione valida dal 21 alle 00 UTC al 21 alle 24 UTC
Vento 12 kt da sud-ovest
Visibilità 10 km o più
nessuna nube inferiore a 1500 m e nessun cumulonembo

TAF: ZPPP 201912Z 2100/2124 22006MPS CAVOK TX18/2108Z TN07/2123Z

Osservazioni e previsioni meteorologiche di più di 4000 aeroporti (messaggi METAR e TAF).

Le stazioni disponibili sono rappresentate dai dischi gialli e rossi sulla carta.

Puntare il mouse per vedere il nome della stazione.

Clicca sopra per visualizzare le osservazioni e previsioni meteorologiche.

Per cambiare la mappa : fare clic sui pulsanti verdi con una croce nera per ingrandire, il pulsante verde con un trattino per diminuire, o sulla freccia verde per le mappe adiacenti.


METAR-TAF: